Time;durP1;ratioP1;P1;durP2;ratioP2;P2;SDS_P1;SDS_P2;PMS_P1;PMS_P2;Temp;Humidity;BMP_temperature;BMP_pressure;BME280_temperature;BME280_humidity;BME280_pressure;Samples;Min_cycle;Max_cycle;Signal;HPM_P1;HPM_P2
2023/05/26 00:01:03;;;;;;;7.27;5.33;;;17.00;99.90;;;;;;5091129;28;20439;-44
2023/05/26 00:03:30;;;;;;;6.00;5.17;;;16.80;99.90;;;;;;5089959;28;21064;-45
2023/05/26 00:05:57;;;;;;;5.53;4.70;;;16.90;99.90;;;;;;5090466;28;20871;-45
2023/05/26 00:08:24;;;;;;;6.47;4.77;;;17.10;99.90;;;;;;5090594;28;20481;-45
2023/05/26 00:10:51;;;;;;;5.20;4.43;;;17.20;99.90;;;;;;5090263;28;20517;-45
2023/05/26 00:13:18;;;;;;;5.47;4.67;;;17.30;99.90;;;;;;5089490;28;20467;-45
2023/05/26 00:15:45;;;;;;;7.00;6.30;;;17.40;99.90;;;;;;5090485;28;20532;-45
2023/05/26 00:18:13;;;;;;;6.50;5.10;;;17.50;99.90;;;;;;5091004;28;20541;-45
2023/05/26 00:20:40;;;;;;;5.50;4.80;;;17.50;99.90;;;;;;5090246;28;21032;-45
2023/05/26 00:23:07;;;;;;;4.73;4.10;;;17.60;99.90;;;;;;5090691;28;20500;-45
2023/05/26 00:25:34;;;;;;;5.67;4.40;;;17.70;99.90;;;;;;5090178;28;20475;-45
2023/05/26 00:28:01;;;;;;;5.60;4.43;;;17.70;99.90;;;;;;5090919;28;20888;-45
2023/05/26 00:30:29;;;;;;;8.30;5.30;;;17.70;99.90;;;;;;5089828;28;20961;-45
2023/05/26 00:32:57;;;;;;;8.00;5.40;;;17.70;99.90;;;;;;5088806;28;20470;-45
2023/05/26 00:35:25;;;;;;;5.40;4.67;;;17.80;99.90;;;;;;5088849;28;20447;-44
2023/05/26 00:37:52;;;;;;;6.03;4.40;;;17.80;99.90;;;;;;5089502;28;20533;-45
2023/05/26 00:40:19;;;;;;;7.00;4.53;;;17.80;99.90;;;;;;5089361;28;20529;-45
2023/05/26 00:42:46;;;;;;;5.20;3.93;;;17.70;99.90;;;;;;5088669;28;21068;-45
2023/05/26 00:45:13;;;;;;;5.73;5.13;;;17.70;99.90;;;;;;5089845;28;20517;-45
2023/05/26 00:47:40;;;;;;;5.03;3.73;;;17.70;99.90;;;;;;5088536;28;20461;-45
2023/05/26 00:50:12;;;;;;;5.20;4.10;;;17.70;99.90;;;;;;5090561;28;20442;-45
2023/05/26 00:52:41;;;;;;;5.27;4.30;;;17.60;99.90;;;;;;5089697;28;20516;-45
2023/05/26 00:55:09;;;;;;;7.17;4.33;;;17.60;99.90;;;;;;5092585;28;21032;-45
2023/05/26 00:57:38;;;;;;;5.03;4.53;;;17.70;99.90;;;;;;5093624;28;20533;-43
2023/05/26 01:00:07;;;;;;;6.57;4.70;;;17.70;99.90;;;;;;5092776;28;20533;-45
2023/05/26 01:02:35;;;;;;;5.70;4.60;;;17.70;99.90;;;;;;5093792;28;20668;-45
2023/05/26 01:05:01;;;;;;;5.27;4.20;;;17.70;99.90;;;;;;5094128;28;20488;-44
2023/05/26 01:07:28;;;;;;;5.93;4.40;;;17.70;99.90;;;;;;5093255;28;20878;-45
2023/05/26 01:09:57;;;;;;;6.33;4.80;;;17.70;99.90;;;;;;5093060;28;20530;-45
2023/05/26 01:12:29;;;;;;;5.00;4.50;;;17.70;99.90;;;;;;5092072;28;20561;-45
2023/05/26 01:15:01;;;;;;;5.43;4.50;;;17.70;99.90;;;;;;5092711;28;20541;-45
2023/05/26 01:17:33;;;;;;;6.13;3.97;;;17.70;99.90;;;;;;5092740;28;20442;-45
2023/05/26 01:20:11;;;;;;;6.17;4.40;;;17.70;99.90;;;;;;5092506;28;20535;-45
2023/05/26 01:23:01;;;;;;;5.23;4.10;;;17.70;99.90;;;;;;5092257;28;20462;-45
2023/05/26 01:25:46;;;;;;;4.93;4.43;;;17.70;99.90;;;;;;5082622;28;20459;-45
2023/05/26 01:28:17;;;;;;;6.03;4.57;;;17.60;99.90;;;;;;5091872;28;20539;-45
2023/05/26 01:30:45;;;;;;;5.77;4.63;;;17.60;99.90;;;;;;5092364;28;20949;-45
2023/05/26 01:33:12;;;;;;;4.90;4.27;;;17.60;99.90;;;;;;5091724;28;20871;-45
2023/05/26 01:35:39;;;;;;;4.50;3.73;;;17.60;99.90;;;;;;5092064;28;20540;-45
2023/05/26 01:38:08;;;;;;;5.00;4.40;;;17.70;99.90;;;;;;5091662;28;20439;-45
2023/05/26 01:40:36;;;;;;;5.33;4.07;;;17.60;99.90;;;;;;5092175;28;20897;-45
2023/05/26 01:43:09;;;;;;;5.47;4.40;;;17.60;99.90;;;;;;5092626;28;20549;-45
2023/05/26 01:45:44;;;;;;;5.57;3.90;;;17.60;99.90;;;;;;5092591;28;20528;-45
2023/05/26 01:48:12;;;;;;;4.30;3.83;;;17.60;99.90;;;;;;5091368;28;20438;-45
2023/05/26 01:50:45;;;;;;;5.50;3.80;;;17.60;99.90;;;;;;5093267;28;20573;-45
2023/05/26 01:53:13;;;;;;;7.80;5.00;;;17.70;99.90;;;;;;5092625;28;20521;-45
2023/05/26 01:55:42;;;;;;;4.63;4.10;;;17.60;99.90;;;;;;5092568;28;20530;-45
2023/05/26 01:58:10;;;;;;;5.57;4.50;;;17.60;99.90;;;;;;5090853;28;20487;-45
2023/05/26 02:00:46;;;;;;;4.63;4.23;;;17.60;99.90;;;;;;5093087;28;20452;-45
2023/05/26 02:03:14;;;;;;;5.13;4.10;;;17.60;99.90;;;;;;5092590;28;20543;-45
2023/05/26 02:05:41;;;;;;;7.00;4.27;;;17.60;99.90;;;;;;5091450;28;20447;-44
2023/05/26 02:08:11;;;;;;;14.03;5.30;;;17.60;99.90;;;;;;5092269;28;20536;-45
2023/05/26 02:10:38;;;;;;;5.00;3.90;;;17.60;99.90;;;;;;5093104;28;20497;-45
2023/05/26 02:13:05;;;;;;;5.97;4.83;;;17.60;99.90;;;;;;5092460;28;20482;-45
2023/05/26 02:15:32;;;;;;;5.70;4.00;;;17.50;99.90;;;;;;5092888;28;20470;-45
2023/05/26 02:18:02;;;;;;;4.50;3.80;;;17.60;99.90;;;;;;5092648;28;20516;-45
2023/05/26 02:20:29;;;;;;;5.37;4.07;;;17.60;99.90;;;;;;5092864;28;20449;-45
2023/05/26 02:22:56;;;;;;;5.83;5.10;;;17.60;99.90;;;;;;5092156;28;20983;-45
2023/05/26 02:25:23;;;;;;;7.33;4.57;;;17.50;99.90;;;;;;5090806;28;20477;-45
2023/05/26 02:27:50;;;;;;;6.77;4.07;;;17.50;99.90;;;;;;5091561;28;20528;-44
2023/05/26 02:30:17;;;;;;;6.00;4.27;;;16.90;99.90;;;;;;5091063;28;20529;-44
2023/05/26 02:32:44;;;;;;;4.57;3.80;;;17.00;99.90;;;;;;5090353;28;20520;-45
2023/05/26 02:35:12;;;;;;;6.10;4.53;;;17.10;99.90;;;;;;5090755;28;20478;-44
2023/05/26 02:37:41;;;;;;;5.00;3.90;;;17.20;99.90;;;;;;5090361;28;20504;-42
2023/05/26 02:40:10;;;;;;;7.37;4.30;;;17.30;99.90;;;;;;5090497;28;20437;-45
2023/05/26 02:42:36;;;;;;;6.37;5.67;;;17.40;99.90;;;;;;5092085;28;20465;-45
2023/05/26 02:45:04;;;;;;;4.80;4.13;;;17.30;99.90;;;;;;5091909;28;20503;-44
2023/05/26 02:47:31;;;;;;;5.97;5.30;;;17.20;99.90;;;;;;5089996;28;20531;-45
2023/05/26 02:49:58;;;;;;;6.90;4.90;;;17.00;99.90;;;;;;5090827;28;20944;-45
2023/05/26 02:52:27;;;;;;;5.20;4.40;;;16.80;99.90;;;;;;5091661;28;20489;-45
2023/05/26 02:54:54;;;;;;;6.50;4.90;;;16.70;99.90;;;;;;5092002;28;20445;-44
2023/05/26 02:57:20;;;;;;;6.70;4.53;;;16.70;99.90;;;;;;5091560;28;20961;-45
2023/05/26 02:59:47;;;;;;;6.30;4.50;;;16.80;99.90;;;;;;5090010;28;20518;-45
2023/05/26 03:02:14;;;;;;;5.87;4.97;;;16.90;99.90;;;;;;5090529;28;20552;-44
2023/05/26 03:04:41;;;;;;;6.43;5.33;;;16.90;99.90;;;;;;5090761;28;20453;-45
2023/05/26 03:07:08;;;;;;;4.93;3.77;;;17.00;99.90;;;;;;5090037;28;20540;-45
2023/05/26 03:09:37;;;;;;;5.27;4.53;;;17.00;99.90;;;;;;5090691;28;20436;-45
2023/05/26 03:12:05;;;;;;;5.83;4.40;;;17.00;99.90;;;;;;5089803;28;20476;-44
2023/05/26 03:14:33;;;;;;;4.57;3.73;;;17.00;99.90;;;;;;5090334;28;20457;-45
2023/05/26 03:17:00;;;;;;;5.93;4.33;;;17.10;99.90;;;;;;5090102;28;20713;-45
2023/05/26 03:19:27;;;;;;;4.70;3.60;;;17.10;99.90;;;;;;5091006;28;20441;-45
2023/05/26 03:21:55;;;;;;;5.93;4.60;;;17.00;99.90;;;;;;5089888;28;20471;-45
2023/05/26 03:24:22;;;;;;;5.60;4.23;;;17.00;99.90;;;;;;5090268;28;20436;-45
2023/05/26 03:26:51;;;;;;;8.10;4.93;;;17.10;99.90;;;;;;5089473;28;21023;-45
2023/05/26 03:29:18;;;;;;;5.00;3.83;;;17.10;99.90;;;;;;5090297;28;20444;-44
2023/05/26 03:31:48;;;;;;;5.50;4.50;;;17.20;99.90;;;;;;5089665;28;20528;-44
2023/05/26 03:34:15;;;;;;;5.57;4.63;;;17.20;99.90;;;;;;5090623;28;20459;-45
2023/05/26 03:36:45;;;;;;;5.13;4.63;;;17.30;99.90;;;;;;5090973;28;20536;-45
2023/05/26 03:39:12;;;;;;;5.83;4.30;;;17.30;99.90;;;;;;5091276;28;20494;-45
2023/05/26 03:41:38;;;;;;;5.40;4.40;;;17.30;99.90;;;;;;5090874;28;20548;-44
2023/05/26 03:44:07;;;;;;;6.00;4.43;;;17.30;99.90;;;;;;5091828;28;20527;-44
2023/05/26 03:46:34;;;;;;;5.93;3.33;;;17.30;99.90;;;;;;5087798;28;20442;-44
2023/05/26 03:49:01;;;;;;;5.43;4.70;;;17.30;99.90;;;;;;5088939;28;20832;-44
2023/05/26 03:51:28;;;;;;;6.90;4.80;;;17.30;99.90;;;;;;5088926;28;20473;-44
2023/05/26 03:53:55;;;;;;;5.80;4.83;;;17.40;99.90;;;;;;5089181;28;20566;-45
2023/05/26 03:56:22;;;;;;;6.10;4.40;;;17.40;99.90;;;;;;5088587;28;20974;-45
2023/05/26 03:58:49;;;;;;;5.30;3.83;;;17.40;99.90;;;;;;5087803;28;20524;-45
2023/05/26 04:01:19;;;;;;;5.17;4.00;;;17.40;99.90;;;;;;5090224;28;20538;-45
2023/05/26 04:03:46;;;;;;;6.93;5.10;;;17.40;99.90;;;;;;5089927;28;21015;-45
2023/05/26 04:06:13;;;;;;;5.47;4.60;;;17.40;99.90;;;;;;5090772;28;20552;-45
2023/05/26 04:08:40;;;;;;;6.13;4.23;;;17.50;99.90;;;;;;5089962;28;20490;-45
2023/05/26 04:11:07;;;;;;;5.27;4.67;;;17.50;99.90;;;;;;5089507;28;20712;-45
2023/05/26 04:13:38;;;;;;;4.67;3.90;;;17.50;99.90;;;;;;5089005;28;21025;-45
2023/05/26 04:16:05;;;;;;;5.80;5.13;;;17.50;99.90;;;;;;5089296;28;20483;-45
2023/05/26 04:18:34;;;;;;;5.00;4.20;;;17.50;99.90;;;;;;5089543;28;20457;-45
2023/05/26 04:21:01;;;;;;;4.20;3.80;;;17.50;99.90;;;;;;5088068;28;20477;-45
2023/05/26 04:23:28;;;;;;;5.87;4.40;;;17.50;99.90;;;;;;5089645;28;20536;-45
2023/05/26 04:25:55;;;;;;;4.57;3.53;;;17.50;99.90;;;;;;5090619;28;20527;-45
2023/05/26 04:28:24;;;;;;;5.87;4.50;;;17.40;99.90;;;;;;5090857;28;20446;-45
2023/05/26 04:30:51;;;;;;;7.30;4.30;;;17.40;99.90;;;;;;5094154;28;20536;-43
2023/05/26 04:33:20;;;;;;;5.30;4.43;;;17.40;99.90;;;;;;5092329;28;20485;-46
2023/05/26 04:35:48;;;;;;;6.47;4.70;;;17.40;99.90;;;;;;5092564;28;20528;-45
2023/05/26 04:38:15;;;;;;;5.30;3.93;;;17.40;99.90;;;;;;5094485;28;21251;-45
2023/05/26 04:40:44;;;;;;;4.30;3.90;;;17.40;99.90;;;;;;5094491;28;20860;-45
2023/05/26 04:43:11;;;;;;;5.90;4.33;;;17.40;99.90;;;;;;5094160;28;20497;-46
2023/05/26 04:45:40;;;;;;;6.40;5.13;;;17.30;99.90;;;;;;5092839;28;20978;-45
2023/05/26 04:48:08;;;;;;;5.47;4.50;;;17.30;99.90;;;;;;5091407;28;20446;-45
2023/05/26 04:50:38;;;;;;;7.43;4.70;;;17.30;99.90;;;;;;5092646;28;20441;-45
2023/05/26 04:53:06;;;;;;;5.70;5.20;;;17.30;99.90;;;;;;5092935;28;20477;-45
2023/05/26 04:55:36;;;;;;;4.80;4.00;;;17.30;99.90;;;;;;5092835;28;20996;-45
2023/05/26 04:58:04;;;;;;;4.67;3.87;;;17.30;99.90;;;;;;5090731;28;20437;-45
2023/05/26 05:00:31;;;;;;;5.73;4.87;;;17.20;99.90;;;;;;5093773;28;20445;-44
2023/05/26 05:02:59;;;;;;;5.27;4.77;;;17.20;99.90;;;;;;5093534;28;20964;-45
2023/05/26 05:05:26;;;;;;;5.20;4.50;;;17.30;99.90;;;;;;5093454;28;20448;-45
2023/05/26 05:07:52;;;;;;;6.93;4.50;;;17.30;99.90;;;;;;5093838;28;20465;-45
2023/05/26 05:10:21;;;;;;;6.27;4.60;;;17.30;99.90;;;;;;5093801;28;20645;-45
2023/05/26 05:12:48;;;;;;;6.90;4.87;;;17.30;99.90;;;;;;5093154;28;20930;-45
2023/05/26 05:15:15;;;;;;;5.90;4.63;;;17.20;99.90;;;;;;5093608;28;20531;-45
2023/05/26 05:17:42;;;;;;;6.60;5.00;;;17.20;99.90;;;;;;5093452;28;20489;-46
2023/05/26 05:20:10;;;;;;;7.13;4.53;;;17.20;99.90;;;;;;5093869;28;20536;-45
2023/05/26 05:22:36;;;;;;;5.63;4.13;;;17.20;99.90;;;;;;5092687;28;20987;-45
2023/05/26 05:25:04;;;;;;;5.33;4.40;;;17.30;99.90;;;;;;5093281;28;20979;-44
2023/05/26 05:27:32;;;;;;;5.20;4.17;;;17.30;99.90;;;;;;5093484;28;20433;-45
2023/05/26 05:29:59;;;;;;;5.80;4.00;;;17.30;99.90;;;;;;5093597;28;20500;-45
2023/05/26 05:32:26;;;;;;;6.03;3.80;;;17.40;99.90;;;;;;5093596;28;22421;-45
2023/05/26 05:34:53;;;;;;;4.43;4.03;;;17.40;99.90;;;;;;5092095;28;20857;-45
2023/05/26 05:37:20;;;;;;;5.70;3.90;;;17.40;99.90;;;;;;5093450;28;20457;-46
2023/05/26 05:39:47;;;;;;;5.13;3.93;;;17.40;99.90;;;;;;5093105;28;20484;-46
2023/05/26 05:42:14;;;;;;;6.43;4.50;;;17.40;99.90;;;;;;5092813;28;20903;-46
2023/05/26 05:44:42;;;;;;;5.30;3.40;;;17.40;99.90;;;;;;5093116;28;20450;-46
2023/05/26 05:47:09;;;;;;;4.60;3.97;;;17.40;99.90;;;;;;5091188;28;20476;-46
2023/05/26 05:49:36;;;;;;;4.70;3.37;;;17.40;99.90;;;;;;5093365;28;20861;-45
2023/05/26 05:52:03;;;;;;;5.17;3.60;;;17.50;99.90;;;;;;5090000;28;20550;-46
2023/05/26 05:54:31;;;;;;;5.17;4.20;;;17.50;99.90;;;;;;5092859;28;20476;-45
2023/05/26 05:56:58;;;;;;;4.20;3.80;;;17.50;99.90;;;;;;5092451;28;20875;-46
2023/05/26 05:59:25;;;;;;;5.43;3.63;;;17.50;99.90;;;;;;5090906;28;20473;-45
2023/05/26 06:01:53;;;;;;;5.60;3.97;;;17.50;99.90;;;;;;5092338;28;20553;-46
2023/05/26 06:04:20;;;;;;;4.23;3.40;;;17.60;99.90;;;;;;5093383;28;20522;-45
2023/05/26 06:06:47;;;;;;;4.70;3.30;;;17.60;99.90;;;;;;5092588;28;21011;-47
2023/05/26 06:09:13;;;;;;;5.53;3.70;;;17.60;99.90;;;;;;5092801;28;20983;-46
2023/05/26 06:11:40;;;;;;;6.03;4.20;;;17.50;99.90;;;;;;5091366;28;20568;-45
2023/05/26 06:14:07;;;;;;;5.20;4.27;;;17.60;99.90;;;;;;5091614;28;20473;-45
2023/05/26 06:16:34;;;;;;;5.13;3.97;;;17.60;99.90;;;;;;5091622;28;20442;-46
2023/05/26 06:19:03;;;;;;;5.50;3.83;;;17.60;99.90;;;;;;5091703;28;20558;-45
2023/05/26 06:21:31;;;;;;;6.93;4.13;;;17.50;99.90;;;;;;5091290;28;20434;-46
2023/05/26 06:23:57;;;;;;;5.83;3.80;;;17.50;99.90;;;;;;5091591;28;20479;-46
2023/05/26 06:26:25;;;;;;;7.77;4.10;;;17.50;99.90;;;;;;5092180;28;20533;-46
2023/05/26 06:28:51;;;;;;;9.43;4.53;;;17.50;99.90;;;;;;5092682;28;20794;-47
2023/05/26 06:31:18;;;;;;;7.07;4.23;;;17.50;99.90;;;;;;5092410;28;20494;-45
2023/05/26 06:33:45;;;;;;;5.43;4.07;;;17.40;99.90;;;;;;5092026;28;20578;-46
2023/05/26 06:36:14;;;;;;;5.60;4.70;;;17.30;99.90;;;;;;5092415;28;20529;-46
2023/05/26 06:38:40;;;;;;;6.30;4.83;;;17.20;99.90;;;;;;5092561;28;20474;-45
2023/05/26 06:41:08;;;;;;;5.30;4.17;;;17.20;99.90;;;;;;5092301;28;21021;-45
2023/05/26 06:43:35;;;;;;;7.33;4.40;;;17.20;99.90;;;;;;5091894;28;20521;-46
2023/05/26 06:46:02;;;;;;;4.90;4.07;;;17.10;99.90;;;;;;5091077;28;20536;-45
2023/05/26 06:48:29;;;;;;;5.80;3.97;;;17.20;99.90;;;;;;5090316;28;20540;-46
2023/05/26 06:50:56;;;;;;;4.70;3.27;;;17.20;99.90;;;;;;5090595;28;20841;-45
2023/05/26 06:53:24;;;;;;;9.57;4.07;;;17.20;99.90;;;;;;5089825;28;20572;-46
2023/05/26 06:55:51;;;;;;;5.20;3.70;;;17.20;99.90;;;;;;5091468;28;20521;-46
2023/05/26 06:58:18;;;;;;;4.50;3.67;;;17.20;99.90;;;;;;5089663;28;21014;-46
2023/05/26 07:00:57;;;;;;;5.73;4.40;;;17.30;99.90;;;;;;5092108;28;20465;-45
2023/05/26 07:03:24;;;;;;;5.60;4.17;;;17.20;99.90;;;;;;5089888;28;20978;-46
2023/05/26 07:05:51;;;;;;;4.70;3.77;;;17.30;99.90;;;;;;5088447;28;20524;-46
2023/05/26 07:08:18;;;;;;;4.93;4.10;;;17.40;99.90;;;;;;5090481;28;20481;-46
2023/05/26 07:10:46;;;;;;;5.67;3.87;;;17.40;99.90;;;;;;5090834;28;20480;-45
2023/05/26 07:13:15;;;;;;;4.93;4.10;;;17.40;99.90;;;;;;5089589;28;20479;-45
2023/05/26 07:15:42;;;;;;;8.57;3.93;;;17.40;99.90;;;;;;5088200;28;21000;-47
2023/05/26 07:18:09;;;;;;;6.13;3.57;;;17.40;99.90;;;;;;5090295;28;21043;-46
2023/05/26 07:20:36;;;;;;;5.73;4.67;;;17.40;99.90;;;;;;5089497;28;20579;-46
2023/05/26 07:23:03;;;;;;;7.70;4.23;;;17.30;99.90;;;;;;5091000;28;20495;-46
2023/05/26 07:25:30;;;;;;;5.67;4.53;;;17.30;99.90;;;;;;5089892;28;20535;-47
2023/05/26 07:27:58;;;;;;;7.87;4.70;;;17.30;99.90;;;;;;5091641;28;20534;-46
2023/05/26 07:30:25;;;;;;;5.53;4.00;;;17.40;99.90;;;;;;5090805;28;20539;-47
2023/05/26 07:32:52;;;;;;;6.90;4.83;;;17.50;99.90;;;;;;5089108;28;20560;-45
2023/05/26 07:35:19;;;;;;;5.40;4.23;;;17.50;99.90;;;;;;5088617;28;20971;-45
2023/05/26 07:37:46;;;;;;;6.20;4.10;;;17.50;99.90;;;;;;5089003;28;20480;-46
2023/05/26 07:40:13;;;;;;;7.50;4.20;;;17.50;99.90;;;;;;5089582;28;20468;-45
2023/05/26 07:42:40;;;;;;;16.50;5.37;;;17.50;99.90;;;;;;5088954;28;21039;-45
2023/05/26 07:45:10;;;;;;;13.83;4.60;;;17.70;99.90;;;;;;5089124;28;20488;-46
2023/05/26 07:47:37;;;;;;;8.03;4.30;;;17.80;99.90;;;;;;5087444;28;20470;-45
2023/05/26 07:50:04;;;;;;;5.37;4.30;;;17.80;99.90;;;;;;5090265;28;20891;-45
2023/05/26 07:52:31;;;;;;;7.80;4.20;;;17.80;99.90;;;;;;5090580;28;20565;-46
2023/05/26 07:54:59;;;;;;;5.30;4.10;;;17.80;99.90;;;;;;5091083;28;20569;-46
2023/05/26 07:57:26;;;;;;;4.17;3.40;;;17.90;99.90;;;;;;5090413;28;20445;-46
2023/05/26 07:59:52;;;;;;;5.33;3.80;;;17.90;99.90;;;;;;5087847;28;20862;-44
2023/05/26 08:02:21;;;;;;;5.17;3.90;;;17.80;99.90;;;;;;5089838;28;20494;-46
2023/05/26 08:04:48;;;;;;;6.00;4.60;;;17.80;99.90;;;;;;5090438;28;20439;-46
2023/05/26 08:07:15;;;;;;;5.37;4.40;;;17.80;99.90;;;;;;5089573;28;20535;-47
2023/05/26 08:09:41;;;;;;;8.37;4.57;;;17.80;99.90;;;;;;5090477;28;20438;-45
2023/05/26 08:12:08;;;;;;;6.47;5.03;;;17.90;99.90;;;;;;5090505;28;20536;-46
2023/05/26 08:14:35;;;;;;;6.80;4.00;;;18.00;99.90;;;;;;5090531;28;20915;-46
2023/05/26 08:17:02;;;;;;;5.87;4.30;;;18.00;99.90;;;;;;5090576;28;20481;-45
2023/05/26 08:19:30;;;;;;;11.50;3.93;;;18.10;99.90;;;;;;5090362;28;20437;-46
2023/05/26 08:21:57;;;;;;;5.73;4.10;;;18.20;99.90;;;;;;5069794;28;20851;-46
2023/05/26 08:24:25;;;;;;;6.07;4.40;;;18.10;99.90;;;;;;5068263;28;20531;-45
2023/05/26 08:26:52;;;;;;;5.83;4.57;;;18.10;99.90;;;;;;5068525;28;20452;-46
2023/05/26 08:29:20;;;;;;;5.70;4.30;;;18.10;99.90;;;;;;5068871;28;20543;-45
2023/05/26 08:31:46;;;;;;;6.10;4.60;;;18.20;99.90;;;;;;5069644;28;20825;-46
2023/05/26 08:34:13;;;;;;;5.83;3.80;;;18.10;99.90;;;;;;5070249;28;20577;-46
2023/05/26 08:36:42;;;;;;;5.47;4.90;;;18.20;99.90;;;;;;5070011;28;20954;-45
2023/05/26 08:39:08;;;;;;;8.60;4.17;;;18.30;99.90;;;;;;5068802;28;20530;-46
2023/05/26 08:41:44;;;;;;;7.23;5.47;;;18.30;99.90;;;;;;5069882;28;20531;-46
2023/05/26 08:44:12;;;;;;;6.00;4.73;;;18.30;99.90;;;;;;5070563;28;20478;-46
2023/05/26 08:46:40;;;;;;;6.67;4.63;;;18.30;99.90;;;;;;5068709;28;20478;-46
2023/05/26 08:49:09;;;;;;;7.50;4.83;;;18.30;99.90;;;;;;5069926;28;20494;-46
2023/05/26 08:51:40;;;;;;;5.13;4.17;;;18.40;99.90;;;;;;5069718;28;20538;-47
2023/05/26 08:54:08;;;;;;;6.20;5.07;;;18.50;99.90;;;;;;5070520;28;20490;-46
2023/05/26 08:56:36;;;;;;;6.20;4.27;;;18.70;99.90;;;;;;5068222;28;20444;-46
2023/05/26 08:59:03;;;;;;;7.73;5.10;;;18.50;99.90;;;;;;5068372;28;20443;-46
2023/05/26 09:01:30;;;;;;;7.03;4.67;;;18.40;99.90;;;;;;5069852;28;20871;-45
2023/05/26 09:03:57;;;;;;;6.40;5.50;;;18.30;99.90;;;;;;5070051;28;20884;-46
2023/05/26 09:06:24;;;;;;;7.10;5.10;;;18.40;99.90;;;;;;5069500;28;20474;-46
2023/05/26 09:08:52;;;;;;;6.60;4.20;;;18.50;99.90;;;;;;5069854;28;20442;-46
2023/05/26 09:11:22;;;;;;;6.37;5.67;;;18.50;99.90;;;;;;5069143;28;20595;-44
2023/05/26 09:13:53;;;;;;;6.67;5.03;;;18.60;99.90;;;;;;5068733;28;20522;-46
2023/05/26 09:16:23;;;;;;;6.97;4.90;;;18.70;99.90;;;;;;5070791;28;20447;-45
2023/05/26 09:18:50;;;;;;;8.10;5.93;;;18.80;99.90;;;;;;5070680;28;20534;-47
2023/05/26 09:21:18;;;;;;;6.87;4.80;;;18.90;99.90;;;;;;5072296;28;20525;-45
2023/05/26 09:23:46;;;;;;;7.57;5.90;;;18.70;99.90;;;;;;5072422;28;20462;-46
2023/05/26 09:26:17;;;;;;;6.60;5.80;;;18.70;99.90;;;;;;5072601;28;20932;-42
2023/05/26 09:28:49;;;;;;;6.83;4.80;;;18.70;99.90;;;;;;5073419;28;20441;-44
2023/05/26 09:31:16;;;;;;;7.13;5.07;;;18.80;99.90;;;;;;5073318;28;20545;-46
2023/05/26 09:33:46;;;;;;;7.20;4.70;;;18.90;99.90;;;;;;5072856;28;20872;-46
2023/05/26 09:36:14;;;;;;;9.83;7.07;;;19.10;99.90;;;;;;5072906;28;20452;-46
2023/05/26 09:38:42;;;;;;;7.70;5.20;;;19.20;99.90;;;;;;5073244;28;20483;-45
2023/05/26 09:41:10;;;;;;;6.53;4.73;;;19.40;99.90;;;;;;5073076;28;20476;-46
2023/05/26 09:43:38;;;;;;;7.23;4.67;;;19.40;99.90;;;;;;5072846;28;20532;-47
2023/05/26 09:46:20;;;;;;;5.13;4.10;;;19.50;99.90;;;;;;5071148;28;20535;-46
2023/05/26 09:48:50;;;;;;;5.43;4.50;;;19.60;99.90;;;;;;5073109;28;20524;-46
2023/05/26 09:51:20;;;;;;;5.67;4.70;;;19.70;99.90;;;;;;5073860;28;20837;-46
2023/05/26 09:53:47;;;;;;;4.67;3.63;;;19.70;99.90;;;;;;5072557;28;20544;-45
2023/05/26 09:56:18;;;;;;;4.07;3.67;;;19.90;99.90;;;;;;5072622;28;20481;-46
2023/05/26 09:58:47;;;;;;;5.43;4.17;;;19.90;99.90;;;;;;5071392;28;20495;-45
2023/05/26 10:01:17;;;;;;;4.50;3.40;;;19.90;99.90;;;;;;5073080;28;20474;-46
2023/05/26 10:03:45;;;;;;;4.40;3.50;;;19.90;99.90;;;;;;5072410;28;20492;-46
2023/05/26 10:06:13;;;;;;;4.27;3.07;;;20.00;99.90;;;;;;5072309;28;20452;-46
2023/05/26 10:08:43;;;;;;;5.10;3.50;;;20.10;99.90;;;;;;5071209;28;20470;-46
2023/05/26 10:11:10;;;;;;;5.30;4.53;;;20.20;99.90;;;;;;5072339;28;20201;-46
2023/05/26 10:13:37;;;;;;;6.60;4.27;;;20.30;99.90;;;;;;5071843;28;20555;-46
2023/05/26 10:16:06;;;;;;;5.53;4.20;;;20.40;99.90;;;;;;5072011;28;20479;-46
2023/05/26 10:18:34;;;;;;;4.60;4.03;;;20.40;99.90;;;;;;5070360;28;20479;-46
2023/05/26 10:21:06;;;;;;;6.07;4.80;;;20.50;99.90;;;;;;5072076;28;20506;-46
2023/05/26 10:23:43;;;;;;;5.10;4.53;;;20.60;99.90;;;;;;5072061;28;20495;-46
2023/05/26 10:26:18;;;;;;;4.23;3.47;;;20.60;99.90;;;;;;5071231;28;20531;-46
2023/05/26 10:28:50;;;;;;;4.17;3.40;;;20.70;99.90;;;;;;5071664;28;20534;-46
2023/05/26 10:31:29;;;;;;;4.83;3.60;;;20.80;99.90;;;;;;5071590;28;20814;-46
2023/05/26 10:33:58;;;;;;;4.90;3.57;;;21.00;99.90;;;;;;5089907;28;20447;-45
2023/05/26 10:36:25;;;;;;;4.13;3.60;;;21.00;99.90;;;;;;5091040;28;21137;-46
2023/05/26 10:38:54;;;;;;;4.47;3.47;;;20.90;99.90;;;;;;5091047;28;20795;-46
2023/05/26 10:41:31;;;;;;;5.20;4.17;;;21.00;99.90;;;;;;5089252;28;20806;-46
2023/05/26 10:43:58;;;;;;;6.13;3.90;;;21.00;99.90;;;;;;5089317;28;20436;-46
2023/05/26 10:46:37;;;;;;;5.50;4.00;;;21.00;99.90;;;;;;5084470;28;20442;-45
2023/05/26 10:49:20;;;;;;;3.80;3.27;;;21.00;99.90;;;;;;5088166;28;20442;-45
2023/05/26 10:51:52;;;;;;;5.10;3.20;;;21.10;99.90;;;;;;5088625;28;20450;-47
2023/05/26 10:54:22;;;;;;;6.43;4.23;;;21.10;99.90;;;;;;5088314;28;20899;-45
2023/05/26 10:56:51;;;;;;;4.90;3.60;;;21.10;99.90;;;;;;5090798;28;20443;-45
2023/05/26 10:59:21;;;;;;;4.30;3.30;;;21.20;99.90;;;;;;5089903;28;20444;-46
2023/05/26 11:01:53;;;;;;;4.80;4.07;;;21.30;99.90;;;;;;5090416;28;20443;-46
2023/05/26 11:04:22;;;;;;;7.97;4.00;;;21.20;99.90;;;;;;5091166;28;20479;-46
2023/05/26 11:06:51;;;;;;;5.00;3.40;;;21.30;99.90;;;;;;5090313;28;20431;-45
2023/05/26 11:09:22;;;;;;;4.63;2.93;;;21.60;99.90;;;;;;5091244;28;20490;-45
2023/05/26 11:11:51;;;;;;;5.87;3.30;;;21.60;99.90;;;;;;5090041;28;20523;-45
2023/05/26 11:14:24;;;;;;;5.07;2.80;;;21.80;99.90;;;;;;5090138;28;20567;-46
2023/05/26 11:16:51;;;;;;;4.03;3.27;;;21.90;99.90;;;;;;5090575;28;20804;-46
2023/05/26 11:19:28;;;;;;;8.33;3.70;;;21.90;99.90;;;;;;5090991;28;20444;-46
2023/05/26 11:21:55;;;;;;;4.47;3.60;;;21.80;99.90;;;;;;5090795;28;20470;-46
2023/05/26 11:24:22;;;;;;;4.17;3.33;;;21.80;99.90;;;;;;5091539;28;20525;-46
2023/05/26 11:26:49;;;;;;;5.07;3.93;;;21.70;99.90;;;;;;5090589;28;20444;-46
2023/05/26 11:29:16;;;;;;;4.53;3.27;;;21.60;99.90;;;;;;5090915;28;20901;-46
2023/05/26 11:31:48;;;;;;;5.40;3.87;;;21.50;99.90;;;;;;5091265;28;20530;-46
2023/05/26 11:34:15;;;;;;;6.70;4.10;;;21.60;99.90;;;;;;5091290;28;20490;-46
2023/05/26 11:36:46;;;;;;;4.27;3.20;;;21.60;99.90;;;;;;5090521;28;20530;-45
2023/05/26 11:39:14;;;;;;;5.37;3.83;;;21.70;99.90;;;;;;5090414;28;20459;-45
2023/05/26 11:41:42;;;;;;;4.37;3.77;;;21.80;99.90;;;;;;5090388;28;20444;-45
2023/05/26 11:44:12;;;;;;;5.47;3.80;;;21.80;99.90;;;;;;5090538;28;20529;-45
2023/05/26 11:46:39;;;;;;;5.03;3.60;;;21.80;99.90;;;;;;5090544;28;20480;-45
2023/05/26 11:49:12;;;;;;;5.30;3.87;;;21.90;99.90;;;;;;5090911;28;20507;-45
2023/05/26 11:51:47;;;;;;;7.60;3.70;;;22.10;99.90;;;;;;5090037;28;20449;-45
2023/05/26 11:54:14;;;;;;;3.77;2.90;;;22.00;99.90;;;;;;5089696;28;20483;-45
2023/05/26 11:56:42;;;;;;;6.57;2.63;;;22.00;99.90;;;;;;5090256;28;20444;-46
2023/05/26 11:59:10;;;;;;;5.27;2.90;;;21.90;99.90;;;;;;5088603;28;20535;-45
2023/05/26 12:01:37;;;;;;;5.10;3.67;;;22.00;99.90;;;;;;5089775;28;20533;-45
2023/05/26 12:04:05;;;;;;;4.10;2.93;;;22.00;99.90;;;;;;5090449;28;20482;-44
2023/05/26 12:06:33;;;;;;;4.30;3.37;;;22.00;99.90;;;;;;5088512;28;20526;-45
2023/05/26 12:09:03;;;;;;;4.60;3.03;;;21.90;99.90;;;;;;5090188;28;20813;-45
2023/05/26 12:11:35;;;;;;;4.23;2.80;;;22.00;99.90;;;;;;5090120;28;20439;-45
2023/05/26 12:14:03;;;;;;;4.43;2.90;;;22.10;99.90;;;;;;5090428;28;20910;-45
2023/05/26 12:16:33;;;;;;;4.93;3.20;;;22.00;99.90;;;;;;5089664;28;20641;-45
2023/05/26 12:19:02;;;;;;;4.73;2.90;;;22.00;99.90;;;;;;5090334;28;20530;-45
2023/05/26 12:21:30;;;;;;;4.00;3.00;;;22.00;99.90;;;;;;5089721;28;20447;-43
2023/05/26 12:23:58;;;;;;;4.20;2.80;;;22.20;99.90;;;;;;5090090;28;20455;-45
2023/05/26 12:26:29;;;;;;;4.10;2.77;;;22.40;99.90;;;;;;5089853;28;20528;-45
2023/05/26 12:29:07;;;;;;;3.70;2.80;;;22.70;99.90;;;;;;5089986;28;21019;-45
2023/05/26 12:31:41;;;;;;;3.80;2.77;;;22.70;99.90;;;;;;5089603;28;20454;-44
2023/05/26 12:34:09;;;;;;;3.90;2.70;;;22.50;99.90;;;;;;5089998;28;20996;-45
2023/05/26 12:36:36;;;;;;;4.17;3.07;;;22.30;99.90;;;;;;5090227;28;20480;-45
2023/05/26 12:39:03;;;;;;;4.23;2.87;;;22.30;99.90;;;;;;5089890;28;20452;-45
2023/05/26 12:41:31;;;;;;;4.27;3.20;;;22.40;99.90;;;;;;5089594;28;20523;-44
2023/05/26 12:43:59;;;;;;;4.20;2.50;;;22.40;99.90;;;;;;5090140;28;20536;-45
2023/05/26 12:46:26;;;;;;;4.50;2.93;;;22.30;99.90;;;;;;5089677;28;20536;-46
2023/05/26 12:48:53;;;;;;;4.53;3.30;;;22.20;99.90;;;;;;5089962;28;20447;-45
2023/05/26 12:51:20;;;;;;;4.37;3.43;;;22.30;99.90;;;;;;5092906;28;20534;-44